Аэропорт: Гомель. Гомель

ICAO: UMGG

METAR:
2020-08-12 05:30:00
UMGG 120530Z 35006MPS CAVOK 13/10 Q1018 R28/D NOSIG
METAR:
2020-08-11 23:03:00
TAF UMGG 112303Z 1200/1224 35007MPS 9999 BKN025 TEMPO 1200/1203 33005MPS 2000 BR BKN005 TEMPO 1206/1218 01007G12MPS SCT030CB TEMPO 1221/1224 33005MPS 2000 BR BKN005